createdAt,value
2018-05-04T00:01:01.272Z,70.00
2018-05-04T00:03:30.512Z,70.21
2018-05-04T00:05:59.717Z,70.24
2018-05-04T00:08:29.733Z,70.25
2018-05-04T00:10:59.717Z,70.92
2018-05-04T00:13:28.939Z,71.06
2018-05-04T00:15:58.130Z,70.95
2018-05-04T00:18:27.371Z,70.80
2018-05-04T00:20:56.621Z,71.21
2018-05-04T00:23:25.826Z,71.72
2018-05-04T00:25:55.033Z,72.14
2018-05-04T00:28:24.293Z,72.14
2018-05-04T00:30:53.501Z,71.75
2018-05-04T00:33:22.709Z,71.51
2018-05-04T00:35:51.947Z,71.88
2018-05-04T00:38:21.928Z,72.75
2018-05-04T00:40:51.161Z,72.64
2018-05-04T00:43:20.432Z,72.79
2018-05-04T00:45:50.578Z,73.53
2018-05-04T00:48:19.750Z,73.78
2018-05-04T00:50:49.082Z,73.77
2018-05-04T00:53:18.288Z,73.04
2018-05-04T00:55:47.622Z,72.92
2018-05-04T00:58:16.821Z,74.06
2018-05-04T01:00:46.138Z,74.85
2018-05-04T01:03:15.346Z,75.37
2018-05-04T01:05:44.674Z,75.08
2018-05-04T01:08:13.899Z,74.47
2018-05-04T01:10:43.162Z,74.64
2018-05-04T01:13:13.359Z,75.03
2018-05-04T01:15:44.958Z,75.37
2018-05-04T01:18:14.182Z,75.02
2018-05-04T01:20:43.366Z,74.54
2018-05-04T01:23:12.681Z,75.07
2018-05-04T01:25:41.884Z,75.50
2018-05-04T01:28:11.263Z,76.11
2018-05-04T01:30:40.493Z,76.37
2018-05-04T01:33:09.724Z,76.91
2018-05-04T01:35:39.714Z,77.09
2018-05-04T01:38:09.092Z,77.50
2018-05-04T01:40:38.333Z,77.15
2018-05-04T01:43:08.320Z,77.27
2018-05-04T01:45:37.689Z,77.39
2018-05-04T01:48:06.942Z,77.93
2018-05-04T01:50:36.150Z,78.64
2018-05-04T01:53:06.127Z,79.34
2018-05-04T01:55:35.339Z,79.30
2018-05-04T01:58:04.546Z,78.97
2018-05-04T02:00:33.789Z,78.92
2018-05-04T02:03:03.402Z,78.89
2018-05-04T02:05:33.454Z,78.92
2018-05-04T02:08:02.657Z,78.90
2018-05-04T02:10:32.573Z,79.34
2018-05-04T02:13:01.796Z,79.04
2018-05-04T02:15:31.956Z,78.97
2018-05-04T02:18:01.185Z,79.15
2018-05-04T02:20:30.396Z,79.65
2018-05-04T02:22:59.670Z,79.84
2018-05-04T02:25:29.142Z,80.03
2018-05-04T02:27:58.367Z,80.21
2018-05-04T02:30:27.580Z,80.27
2018-05-04T02:32:56.797Z,80.19
2018-05-04T02:35:26.766Z,80.02
2018-05-04T02:37:56.006Z,80.15
2018-05-04T02:40:25.402Z,79.76
2018-05-04T02:42:54.621Z,78.78
2018-05-04T02:45:23.843Z,78.80
2018-05-04T02:47:53.106Z,79.10
2018-05-04T02:50:23.263Z,79.23
2018-05-04T02:52:52.484Z,79.42
2018-05-04T02:55:23.772Z,79.55
2018-05-04T02:57:52.942Z,79.56
2018-05-04T03:00:22.223Z,79.50
2018-05-04T03:02:51.435Z,80.08
2018-05-04T03:05:21.643Z,80.35
2018-05-04T03:07:51.012Z,80.31
2018-05-04T03:10:20.209Z,80.13
2018-05-04T03:12:49.443Z,80.30
2018-05-04T03:15:18.677Z,80.63
2018-05-04T03:17:48.696Z,80.58
2018-05-04T03:20:18.669Z,80.50
2018-05-04T03:22:47.901Z,80.35
2018-05-04T03:25:18.776Z,80.11
2018-05-04T03:27:49.645Z,80.42
2018-05-04T03:30:18.899Z,80.86
2018-05-04T03:32:48.093Z,80.97
2018-05-04T03:35:18.098Z,81.16
2018-05-04T03:37:48.097Z,81.25
2018-05-04T03:40:17.385Z,81.29
2018-05-04T03:42:46.690Z,81.48
2018-05-04T03:45:16.645Z,81.21
2018-05-04T03:47:46.634Z,81.06
2018-05-04T03:50:17.499Z,81.02
2018-05-04T03:52:47.472Z,80.88
2018-05-04T03:55:16.729Z,80.94
2018-05-04T03:58:03.613Z,80.64
2018-05-04T04:00:50.440Z,80.60
2018-05-04T04:03:37.386Z,80.66
2018-05-04T04:06:06.650Z,80.60
2018-05-04T04:08:35.856Z,80.65
2018-05-04T04:11:05.826Z,80.81
2018-05-04T04:13:36.598Z,80.78
2018-05-04T04:16:06.545Z,80.67
2018-05-04T04:18:35.762Z,80.64
2018-05-04T04:21:05.469Z,81.11
2018-05-04T04:23:34.760Z,80.93
2018-05-04T04:26:04.043Z,80.92
2018-05-04T04:28:33.273Z,80.93
2018-05-04T04:31:03.377Z,81.23
2018-05-04T04:33:32.602Z,81.20
2018-05-04T04:36:01.823Z,81.30
2018-05-04T04:38:31.065Z,81.17
2018-05-04T04:41:00.387Z,81.27
2018-05-04T04:43:29.593Z,81.00
2018-05-04T04:45:59.575Z,80.97
2018-05-04T04:48:28.775Z,80.54
2018-05-04T04:50:58.464Z,80.21
2018-05-04T04:53:27.691Z,80.53
2018-05-04T04:55:56.957Z,80.75
2018-05-04T04:58:26.180Z,80.72
2018-05-04T05:00:56.912Z,80.56
2018-05-04T05:03:26.139Z,79.90
2018-05-04T05:05:55.355Z,79.01
2018-05-04T05:08:24.860Z,79.08
2018-05-04T05:10:54.097Z,78.76
2018-05-04T05:13:23.340Z,79.40
2018-05-04T05:15:52.668Z,79.10
2018-05-04T05:18:22.609Z,79.26
2018-05-04T05:20:51.854Z,78.93
2018-05-04T05:23:21.054Z,78.80
2018-05-04T05:25:51.053Z,78.63
2018-05-04T05:28:20.269Z,78.32
2018-05-04T05:30:50.253Z,78.18
2018-05-04T05:33:19.592Z,77.90
2018-05-04T05:35:49.625Z,77.60
2018-05-04T05:38:18.859Z,77.42
2018-05-04T05:40:48.113Z,77.47
2018-05-04T05:43:18.105Z,77.48
2018-05-04T05:45:48.114Z,78.13
2018-05-04T05:48:17.439Z,77.26
2018-05-04T05:50:47.431Z,77.23
2018-05-04T05:53:16.676Z,76.83
2018-05-04T05:55:45.868Z,77.08
2018-05-04T05:58:15.106Z,77.12
2018-05-04T06:00:44.324Z,77.80
2018-05-04T06:03:13.564Z,76.80
2018-05-04T06:05:42.792Z,77.00
2018-05-04T06:08:12.033Z,76.44
2018-05-04T06:10:42.034Z,76.75
2018-05-04T06:13:11.257Z,76.14
2018-05-04T06:15:40.461Z,75.52
2018-05-04T06:18:09.706Z,75.28
2018-05-04T06:20:38.930Z,75.12
2018-05-04T06:23:08.145Z,75.18
2018-05-04T06:25:38.119Z,73.75
2018-05-04T06:28:07.341Z,72.79
2018-05-04T06:30:37.410Z,73.17
2018-05-04T06:33:06.637Z,70.49
2018-05-04T06:35:35.884Z,69.49
2018-05-04T06:38:05.269Z,69.35
2018-05-04T06:40:35.325Z,67.85
2018-05-04T06:43:04.514Z,66.58
2018-05-04T06:45:33.830Z,65.30
2018-05-04T06:48:03.062Z,65.52
2018-05-04T06:50:32.294Z,64.79
2018-05-04T06:53:01.469Z,64.96
2018-05-04T06:55:30.741Z,64.29
2018-05-04T06:57:59.957Z,63.97
2018-05-04T07:00:29.211Z,62.45
2018-05-04T07:02:58.429Z,60.00
2018-05-04T07:05:27.701Z,60.72
2018-05-04T07:07:56.937Z,62.48
2018-05-04T07:10:26.217Z,61.99
2018-05-04T07:12:55.370Z,61.71
2018-05-04T07:15:24.707Z,61.35
2018-05-04T07:17:53.903Z,60.87
2018-05-04T07:20:23.156Z,60.95
2018-05-04T07:22:52.381Z,60.09
2018-05-04T07:25:21.612Z,59.66
2018-05-04T07:27:50.822Z,60.61
2018-05-04T07:30:20.052Z,61.13
2018-05-04T07:32:50.038Z,60.08
2018-05-04T07:35:19.363Z,60.30
2018-05-04T07:37:49.371Z,60.24
2018-05-04T07:40:18.565Z,58.48
2018-05-04T07:42:48.616Z,57.06
2018-05-04T07:45:18.596Z,57.41
2018-05-04T07:47:47.941Z,57.17
2018-05-04T07:50:17.375Z,56.90
2018-05-04T07:52:46.608Z,56.90
2018-05-04T07:55:16.664Z,57.15
2018-05-04T07:57:45.913Z,56.49
2018-05-04T08:00:15.130Z,57.77
2018-05-04T08:02:44.378Z,56.13
2018-05-04T08:05:13.644Z,55.85
2018-05-04T08:07:42.870Z,56.57
2018-05-04T08:10:12.109Z,54.54
2018-05-04T08:12:42.105Z,54.18
2018-05-04T08:15:11.391Z,53.84
2018-05-04T08:17:40.633Z,54.09
2018-05-04T08:20:10.676Z,54.23
2018-05-04T08:22:40.622Z,53.66
2018-05-04T08:25:10.626Z,54.68
2018-05-04T08:27:39.842Z,53.24
2018-05-04T08:30:09.067Z,53.62
2018-05-04T08:32:39.101Z,52.69
2018-05-04T08:35:08.396Z,52.60
2018-05-04T08:37:37.560Z,52.53
2018-05-04T08:40:07.657Z,51.85
2018-05-04T08:42:36.885Z,51.25
2018-05-04T08:45:06.114Z,52.13
2018-05-04T08:47:35.340Z,50.22
2018-05-04T08:50:04.558Z,48.94
2018-05-04T08:52:33.809Z,48.52
2018-05-04T08:55:03.027Z,49.12
2018-05-04T08:57:32.249Z,48.40
2018-05-04T09:00:01.460Z,49.84
2018-05-04T09:02:30.685Z,50.38
2018-05-04T09:05:00.681Z,51.76
2018-05-04T09:07:29.901Z,50.20
2018-05-04T09:09:59.876Z,49.86
2018-05-04T09:12:29.080Z,49.12
2018-05-04T09:14:58.309Z,49.53
2018-05-04T09:17:27.579Z,46.98
2018-05-04T09:19:56.824Z,48.21
2018-05-04T09:22:26.230Z,46.70
2018-05-04T09:24:55.492Z,47.05
2018-05-04T09:27:24.733Z,46.78
2018-05-04T09:29:53.940Z,46.71
2018-05-04T09:32:23.224Z,45.59
2018-05-04T09:34:52.429Z,44.93
2018-05-04T09:37:21.906Z,46.02
2018-05-04T09:39:51.163Z,43.39
2018-05-04T09:42:20.360Z,43.00
2018-05-04T09:44:49.591Z,44.66
2018-05-04T09:47:18.800Z,44.20
2018-05-04T09:49:48.835Z,44.48
2018-05-04T09:52:18.071Z,42.65
2018-05-04T09:54:47.291Z,43.83
2018-05-04T09:57:17.298Z,39.64
2018-05-04T09:59:46.487Z,38.54
2018-05-04T10:02:15.733Z,38.51
2018-05-04T10:04:44.957Z,39.87
2018-05-04T10:07:14.207Z,40.29
2018-05-04T10:09:43.409Z,40.52
2018-05-04T10:12:13.528Z,40.58
2018-05-04T10:14:42.864Z,41.16
2018-05-04T10:17:12.163Z,39.93
2018-05-04T10:19:41.420Z,40.49
2018-05-04T10:22:10.639Z,39.13
2018-05-04T10:24:39.858Z,38.08
2018-05-04T10:27:09.218Z,38.30
2018-05-04T10:29:39.260Z,38.61
2018-05-04T10:32:08.571Z,37.94
2018-05-04T10:34:37.809Z,38.18
2018-05-04T10:37:07.010Z,38.84
2018-05-04T10:39:37.145Z,38.32
2018-05-04T10:42:06.357Z,39.10
2018-05-04T10:44:36.375Z,39.52
2018-05-04T10:47:05.602Z,39.51
2018-05-04T10:49:34.911Z,40.44
2018-05-04T10:52:04.107Z,40.63
2018-05-04T10:54:33.393Z,41.42
2018-05-04T10:57:02.645Z,41.46
2018-05-04T10:59:31.871Z,42.62
2018-05-04T11:02:01.076Z,42.82
2018-05-04T11:04:30.320Z,42.67
2018-05-04T11:06:59.542Z,41.51
2018-05-04T11:09:29.554Z,42.16
2018-05-04T11:11:58.924Z,42.57
2018-05-04T11:14:28.145Z,41.21
2018-05-04T11:16:57.358Z,41.43
2018-05-04T11:19:27.619Z,42.69
2018-05-04T11:21:57.568Z,41.17
2018-05-04T11:24:26.778Z,40.85
2018-05-04T11:26:56.021Z,40.51
2018-05-04T11:29:25.265Z,41.97
2018-05-04T11:31:54.518Z,40.40
2018-05-04T11:34:23.789Z,40.24
2018-05-04T11:36:53.103Z,40.48
2018-05-04T11:39:22.305Z,40.08
2018-05-04T11:41:51.565Z,39.66
2018-05-04T11:44:20.764Z,40.22
2018-05-04T11:46:50.046Z,39.89
2018-05-04T11:49:19.261Z,40.99
2018-05-04T11:51:48.466Z,40.23
2018-05-04T11:54:18.465Z,39.17
2018-05-04T11:56:47.687Z,40.88
2018-05-04T11:59:17.907Z,39.66
2018-05-04T12:01:47.239Z,39.30
2018-05-04T12:04:16.464Z,40.91
2018-05-04T12:06:45.680Z,39.92
2018-05-04T12:09:14.902Z,40.00
2018-05-04T12:11:44.144Z,39.31
2018-05-04T12:14:13.438Z,41.00
2018-05-04T12:16:42.729Z,39.67
2018-05-04T12:19:11.916Z,40.25
2018-05-04T12:21:41.345Z,39.62
2018-05-04T12:24:10.603Z,39.99
2018-05-04T12:26:40.598Z,40.23
2018-05-04T12:29:09.840Z,39.95
2018-05-04T12:31:39.084Z,40.22
2018-05-04T12:34:09.111Z,38.61
2018-05-04T12:36:38.324Z,38.51
2018-05-04T12:39:07.565Z,38.86
2018-05-04T12:41:36.762Z,39.28
2018-05-04T12:44:05.967Z,38.99
2018-05-04T12:46:35.297Z,38.70
2018-05-04T12:49:04.574Z,38.32
2018-05-04T12:51:33.841Z,37.02
2018-05-04T12:54:03.045Z,37.17
2018-05-04T12:56:32.284Z,36.78
2018-05-04T12:59:01.576Z,38.84
2018-05-04T13:01:30.811Z,37.33
2018-05-04T13:04:00.822Z,36.83
2018-05-04T13:06:30.078Z,37.34
2018-05-04T13:08:59.283Z,36.08
2018-05-04T13:11:28.556Z,36.55
2018-05-04T13:13:57.750Z,37.81
2018-05-04T13:16:26.989Z,37.45
2018-05-04T13:18:56.207Z,36.87
2018-05-04T13:21:26.218Z,37.06
2018-05-04T13:23:56.192Z,37.06
2018-05-04T13:26:25.405Z,37.18
2018-05-04T13:28:54.654Z,36.06
2018-05-04T13:31:23.921Z,36.76
2018-05-04T13:33:53.249Z,36.57
2018-05-04T13:36:23.266Z,36.22
2018-05-04T13:38:52.472Z,36.65
2018-05-04T13:41:21.734Z,36.41
2018-05-04T13:43:51.026Z,36.96
2018-05-04T13:46:20.246Z,36.35
2018-05-04T13:48:50.231Z,36.41
2018-05-04T13:51:19.808Z,36.57
2018-05-04T13:53:49.217Z,36.57
2018-05-04T13:56:18.429Z,37.33
2018-05-04T13:58:47.821Z,37.79
2018-05-04T14:01:17.057Z,35.74
2018-05-04T14:03:46.433Z,36.55
2018-05-04T14:06:15.773Z,36.75
2018-05-04T14:08:45.005Z,36.61
2018-05-04T14:11:14.406Z,35.96
2018-05-04T14:13:43.665Z,36.23
2018-05-04T14:16:12.891Z,36.09
2018-05-04T14:18:42.109Z,36.68
2018-05-04T14:21:11.475Z,36.54
2018-05-04T14:23:40.714Z,37.20
2018-05-04T14:26:09.982Z,36.78
2018-05-04T14:28:39.201Z,37.09
2018-05-04T14:31:08.409Z,37.51
2018-05-04T14:33:37.635Z,37.03
2018-05-04T14:36:06.949Z,37.44
2018-05-04T14:38:36.953Z,37.46
2018-05-04T14:41:06.182Z,37.33
2018-05-04T14:43:35.429Z,37.88
2018-05-04T14:46:04.607Z,36.88
2018-05-04T14:48:33.875Z,38.38
2018-05-04T14:51:03.889Z,38.58
2018-05-04T14:53:33.970Z,37.56
2018-05-04T14:56:03.226Z,37.97
2018-05-04T14:58:32.554Z,38.05
2018-05-04T15:01:01.796Z,37.27
2018-05-04T15:03:31.814Z,37.58
2018-05-04T15:06:01.901Z,37.23
2018-05-04T15:08:31.130Z,37.21
2018-05-04T15:11:01.223Z,37.57
2018-05-04T15:13:30.863Z,36.66
2018-05-04T15:16:00.138Z,37.39
2018-05-04T15:18:29.318Z,37.43
2018-05-04T15:20:58.549Z,36.66
2018-05-04T15:23:28.569Z,36.44
2018-05-04T15:25:58.635Z,37.43
2018-05-04T15:28:27.829Z,36.99
2018-05-04T15:30:57.086Z,36.79
2018-05-04T15:33:27.097Z,36.49
2018-05-04T15:35:57.098Z,36.49
2018-05-04T15:38:26.304Z,37.29
2018-05-04T15:40:56.326Z,37.05
2018-05-04T15:43:25.665Z,37.54
2018-05-04T15:45:54.931Z,37.15
2018-05-04T15:48:29.735Z,36.46
2018-05-04T15:51:04.565Z,36.72
2018-05-04T15:53:34.030Z,37.54
2018-05-04T15:56:03.261Z,37.16
2018-05-04T15:58:32.514Z,37.43
2018-05-04T16:01:01.786Z,36.85
2018-05-04T16:03:31.810Z,37.46
2018-05-04T16:06:01.840Z,38.60
2018-05-04T16:08:31.058Z,38.72
2018-05-04T16:11:00.302Z,39.66
2018-05-04T16:13:29.762Z,38.34
2018-05-04T16:15:59.013Z,38.63
2018-05-04T16:18:28.254Z,38.89
2018-05-04T16:20:57.630Z,39.16
2018-05-04T16:23:26.847Z,39.43
2018-05-04T16:25:56.079Z,39.08
2018-05-04T16:28:25.304Z,39.04
2018-05-04T16:30:55.289Z,39.43
2018-05-04T16:33:24.504Z,39.95
2018-05-04T16:35:53.723Z,39.26
2018-05-04T16:38:23.758Z,39.49
2018-05-04T16:40:52.988Z,39.59
2018-05-04T16:43:22.279Z,39.88
2018-05-04T16:45:51.467Z,39.22
2018-05-04T16:48:26.165Z,39.35
2018-05-04T16:50:56.139Z,39.60
2018-05-04T16:53:25.435Z,39.69
2018-05-04T16:55:54.701Z,40.17
2018-05-04T16:58:24.065Z,39.62
2018-05-04T17:00:54.269Z,39.38
2018-05-04T17:03:24.492Z,39.75
2018-05-04T17:05:53.714Z,39.41
2018-05-04T17:08:22.965Z,39.93
2018-05-04T17:10:52.526Z,40.15
2018-05-04T17:13:21.745Z,39.86
2018-05-04T17:15:51.280Z,40.31
2018-05-04T17:18:20.561Z,40.26
2018-05-04T17:20:49.984Z,40.12
2018-05-04T17:23:19.238Z,40.33
2018-05-04T17:25:48.545Z,40.71
2018-05-04T17:28:17.750Z,40.11
2018-05-04T17:30:47.022Z,40.19
2018-05-04T17:33:17.011Z,40.26
2018-05-04T17:35:47.051Z,40.45
2018-05-04T17:38:17.026Z,41.00
2018-05-04T17:40:46.425Z,40.81
2018-05-04T17:43:17.187Z,41.31
2018-05-04T17:45:46.402Z,41.23
2018-05-04T17:48:15.681Z,41.39
2018-05-04T17:50:44.925Z,41.36
2018-05-04T17:53:14.201Z,41.40
2018-05-04T17:55:44.017Z,42.23
2018-05-04T17:58:13.353Z,41.84
2018-05-04T18:00:42.586Z,42.51
2018-05-04T18:03:12.662Z,42.64
2018-05-04T18:05:42.673Z,42.54
2018-05-04T18:08:11.920Z,43.17
2018-05-04T18:10:41.106Z,43.24
2018-05-04T18:13:10.419Z,43.29
2018-05-04T18:15:39.761Z,43.33
2018-05-04T18:18:08.973Z,43.24
2018-05-04T18:20:38.226Z,43.49
2018-05-04T18:23:08.252Z,43.15
2018-05-04T18:25:37.461Z,43.88
2018-05-04T18:28:06.689Z,44.08
2018-05-04T18:30:35.919Z,44.37
2018-05-04T18:33:05.178Z,44.79
2018-05-04T18:35:34.517Z,44.60
2018-05-04T18:38:03.846Z,44.90
2018-05-04T18:40:33.856Z,45.33
2018-05-04T18:43:03.125Z,45.46
2018-05-04T18:45:33.891Z,45.78
2018-05-04T18:48:03.164Z,45.84
2018-05-04T18:50:33.185Z,46.50
2018-05-04T18:53:03.095Z,46.71
2018-05-04T18:55:33.110Z,46.67
2018-05-04T18:58:03.868Z,47.08
2018-05-04T19:00:33.131Z,47.17
2018-05-04T19:03:07.958Z,47.72
2018-05-04T19:05:37.282Z,47.28
2018-05-04T19:08:07.306Z,47.76
2018-05-04T19:10:36.521Z,47.67
2018-05-04T19:13:05.803Z,48.02
2018-05-04T19:15:35.831Z,47.90
2018-05-04T19:18:05.816Z,47.97
2018-05-04T19:20:35.183Z,48.20
2018-05-04T19:23:04.343Z,48.18
2018-05-04T19:25:33.581Z,48.11
2018-05-04T19:28:02.843Z,48.24
2018-05-04T19:30:32.800Z,48.28
2018-05-04T19:33:02.172Z,48.51
2018-05-04T19:35:31.355Z,48.33
2018-05-04T19:38:00.605Z,48.59
2018-05-04T19:40:29.822Z,48.74
2018-05-04T19:42:59.041Z,48.67
2018-05-04T19:45:29.069Z,48.50
2018-05-04T19:47:58.371Z,48.85
2018-05-04T19:50:27.567Z,48.71
2018-05-04T19:52:56.902Z,48.63
2018-05-04T19:55:26.219Z,48.87
2018-05-04T19:57:55.502Z,49.48
2018-05-04T20:00:24.688Z,48.81
2018-05-04T20:02:54.006Z,48.88
2018-05-04T20:05:23.223Z,48.98
2018-05-04T20:07:52.681Z,49.19
2018-05-04T20:10:22.327Z,49.29
2018-05-04T20:12:52.495Z,49.33
2018-05-04T20:15:21.873Z,49.34
2018-05-04T20:17:51.880Z,49.58
2018-05-04T20:20:21.888Z,49.83
2018-05-04T20:22:51.300Z,50.22
2018-05-04T20:25:20.746Z,50.44
2018-05-04T20:27:49.958Z,50.70
2018-05-04T20:30:19.249Z,50.80
2018-05-04T20:32:48.500Z,51.28
2018-05-04T20:35:17.810Z,51.54
2018-05-04T20:37:47.815Z,51.90
2018-05-04T20:40:17.944Z,52.17
2018-05-04T20:42:47.097Z,52.24
2018-05-04T20:45:16.340Z,52.17
2018-05-04T20:47:46.396Z,52.77
2018-05-04T20:50:15.678Z,52.68
2018-05-04T20:52:44.905Z,53.04
2018-05-04T20:55:14.152Z,53.56
2018-05-04T20:57:43.378Z,53.80
2018-05-04T21:00:12.672Z,53.58
2018-05-04T21:02:41.950Z,53.39
2018-05-04T21:05:11.977Z,53.42
2018-05-04T21:07:41.208Z,53.68
2018-05-04T21:10:10.469Z,53.89
2018-05-04T21:12:39.958Z,54.33
2018-05-04T21:15:09.241Z,54.34
2018-05-04T21:17:38.534Z,54.47
2018-05-04T21:20:07.742Z,54.87
2018-05-04T21:22:37.837Z,55.56
2018-05-04T21:25:07.057Z,55.99
2018-05-04T21:27:36.441Z,56.62
2018-05-04T21:30:05.662Z,56.76
2018-05-04T21:32:34.920Z,57.21
2018-05-04T21:35:04.203Z,57.34
2018-05-04T21:37:33.612Z,57.89
2018-05-04T21:40:02.831Z,58.32
2018-05-04T21:42:32.082Z,58.66
2018-05-04T21:45:01.332Z,58.39
2018-05-04T21:47:30.551Z,58.29
2018-05-04T21:49:59.804Z,58.38
2018-05-04T21:52:29.053Z,58.25
2018-05-04T21:54:59.067Z,59.01
2018-05-04T21:57:29.067Z,58.81
2018-05-04T21:59:58.434Z,58.79
2018-05-04T22:02:27.664Z,59.74
2018-05-04T22:04:57.085Z,60.05
2018-05-04T22:07:27.809Z,60.35
2018-05-04T22:09:57.832Z,60.77
2018-05-04T22:12:27.850Z,60.70
2018-05-04T22:14:57.112Z,59.83
2018-05-04T22:17:26.370Z,60.10
2018-05-04T22:19:56.392Z,58.75
2018-05-04T22:22:25.675Z,58.60
2018-05-04T22:24:54.889Z,58.54
2018-05-04T22:27:24.949Z,58.63
2018-05-04T22:29:54.186Z,58.56
2018-05-04T22:32:24.194Z,58.71
2018-05-04T22:34:54.614Z,58.76
2018-05-04T22:37:24.949Z,58.84
2018-05-04T22:39:54.963Z,59.26
2018-05-04T22:42:25.185Z,59.11
2018-05-04T22:44:54.448Z,59.36
2018-05-04T22:47:23.817Z,59.61
2018-05-04T22:49:53.105Z,59.72
2018-05-04T22:52:22.294Z,59.83
2018-05-04T22:54:51.854Z,60.25
2018-05-04T22:57:21.187Z,60.37
2018-05-04T22:59:50.583Z,59.67
2018-05-04T23:02:19.818Z,59.77
2018-05-04T23:04:49.089Z,59.72
2018-05-04T23:07:18.325Z,59.85
2018-05-04T23:09:47.613Z,60.27
2018-05-04T23:12:16.849Z,60.42
2018-05-04T23:14:46.209Z,60.97
2018-05-04T23:17:15.466Z,61.50
2018-05-04T23:19:44.698Z,61.66
2018-05-04T23:22:29.663Z,61.74
2018-05-04T23:24:59.663Z,61.95
2018-05-04T23:27:28.903Z,61.83
2018-05-04T23:29:58.130Z,61.80
2018-05-04T23:32:27.604Z,61.77
2018-05-04T23:34:56.800Z,61.75
2018-05-04T23:37:26.139Z,61.70
2018-05-04T23:39:55.428Z,62.15
2018-05-04T23:42:24.860Z,61.75
2018-05-04T23:44:54.084Z,61.45
2018-05-04T23:47:23.330Z,61.07
2018-05-04T23:49:52.576Z,61.23
2018-05-04T23:52:21.925Z,61.33
2018-05-04T23:54:51.156Z,60.91
2018-05-04T23:57:21.161Z,60.87
2018-05-04T23:59:50.486Z,61.02
